sensor_id;sensor_type;location;lat;lon;timestamp;pressure;altitude;pressure_sealevel;temperature;humidity
77855;BME280;67046;50.088;14.336;2023-07-24T00:00:11;96956.90;;;22.86;36.06
77855;BME280;67046;50.088;14.336;2023-07-24T00:00:43;96954.23;;;22.85;36.00
77855;BME280;67046;50.088;14.336;2023-07-24T00:01:34;96951.48;;;22.83;36.05
77855;BME280;67046;50.088;14.336;2023-07-24T00:02:05;96951.25;;;22.82;36.06
77855;BME280;67046;50.088;14.336;2023-07-24T00:02:36;96955.48;;;22.81;36.00
77855;BME280;67046;50.088;14.336;2023-07-24T00:03:07;96952.24;;;22.81;36.05
77855;BME280;67046;50.088;14.336;2023-07-24T00:03:39;96952.06;;;22.81;36.24
77855;BME280;67046;50.088;14.336;2023-07-24T00:04:10;96946.27;;;22.80;36.17
77855;BME280;67046;50.088;14.336;2023-07-24T00:04:42;96948.73;;;22.80;36.26
77855;BME280;67046;50.088;14.336;2023-07-24T00:05:13;96944.61;;;22.79;36.14
77855;BME280;67046;50.088;14.336;2023-07-24T00:05:44;96946.84;;;22.79;36.33
77855;BME280;67046;50.088;14.336;2023-07-24T00:06:15;96943.52;;;22.79;36.25
77855;BME280;67046;50.088;14.336;2023-07-24T00:06:46;96942.42;;;22.78;36.24
77855;BME280;67046;50.088;14.336;2023-07-24T00:07:18;96943.05;;;22.77;36.24
77855;BME280;67046;50.088;14.336;2023-07-24T00:07:49;96944.20;;;22.76;36.30
77855;BME280;67046;50.088;14.336;2023-07-24T00:08:20;96942.48;;;22.75;36.19
77855;BME280;67046;50.088;14.336;2023-07-24T00:08:51;96944.82;;;22.74;36.23
77855;BME280;67046;50.088;14.336;2023-07-24T00:09:22;96948.34;;;22.74;36.27
77855;BME280;67046;50.088;14.336;2023-07-24T00:09:54;96945.48;;;22.73;36.30
77855;BME280;67046;50.088;14.336;2023-07-24T00:10:26;96944.63;;;22.73;36.35
77855;BME280;67046;50.088;14.336;2023-07-24T00:10:57;96945.03;;;22.72;36.41
77855;BME280;67046;50.088;14.336;2023-07-24T00:11:29;96949.80;;;22.71;36.44
77855;BME280;67046;50.088;14.336;2023-07-24T00:12:01;96948.08;;;22.71;36.48
77855;BME280;67046;50.088;14.336;2023-07-24T00:12:32;96947.61;;;22.71;36.44
77855;BME280;67046;50.088;14.336;2023-07-24T00:13:03;96944.14;;;22.70;36.48
77855;BME280;67046;50.088;14.336;2023-07-24T00:13:35;96943.75;;;22.70;36.44
77855;BME280;67046;50.088;14.336;2023-07-24T00:14:06;96943.27;;;22.70;36.42
77855;BME280;67046;50.088;14.336;2023-07-24T00:14:37;96943.81;;;22.70;36.48
77855;BME280;67046;50.088;14.336;2023-07-24T00:15:09;96947.38;;;22.70;36.40
77855;BME280;67046;50.088;14.336;2023-07-24T00:15:40;96950.19;;;22.70;36.38
77855;BME280;67046;50.088;14.336;2023-07-24T00:16:11;96944.08;;;22.69;36.41
77855;BME280;67046;50.088;14.336;2023-07-24T00:16:43;96942.62;;;22.69;36.37
77855;BME280;67046;50.088;14.336;2023-07-24T00:17:14;96944.77;;;22.69;36.40
77855;BME280;67046;50.088;14.336;2023-07-24T00:17:45;96948.77;;;22.69;36.36
77855;BME280;67046;50.088;14.336;2023-07-24T00:18:16;96944.44;;;22.68;36.44
77855;BME280;67046;50.088;14.336;2023-07-24T00:18:48;96945.13;;;22.68;36.42
77855;BME280;67046;50.088;14.336;2023-07-24T00:19:19;96947.35;;;22.68;36.41
77855;BME280;67046;50.088;14.336;2023-07-24T00:19:50;96943.40;;;22.67;36.45
77855;BME280;67046;50.088;14.336;2023-07-24T00:20:22;96945.55;;;22.67;36.47
77855;BME280;67046;50.088;14.336;2023-07-24T00:20:55;96945.52;;;22.66;36.52
77855;BME280;67046;50.088;14.336;2023-07-24T00:21:26;96943.10;;;22.65;36.56
77855;BME280;67046;50.088;14.336;2023-07-24T00:21:57;96938.01;;;22.65;36.51
77855;BME280;67046;50.088;14.336;2023-07-24T00:22:28;96941.90;;;22.64;36.55
77855;BME280;67046;50.088;14.336;2023-07-24T00:23:00;96937.19;;;22.63;36.47
77855;BME280;67046;50.088;14.336;2023-07-24T00:23:31;96937.98;;;22.61;36.50
77855;BME280;67046;50.088;14.336;2023-07-24T00:24:02;96940.70;;;22.59;36.59
77855;BME280;67046;50.088;14.336;2023-07-24T00:24:34;96936.91;;;22.59;36.58
77855;BME280;67046;50.088;14.336;2023-07-24T00:25:05;96939.63;;;22.58;36.63
77855;BME280;67046;50.088;14.336;2023-07-24T00:25:37;96937.65;;;22.56;36.71
77855;BME280;67046;50.088;14.336;2023-07-24T00:26:08;96935.09;;;22.56;36.66
77855;BME280;67046;50.088;14.336;2023-07-24T00:26:39;96935.57;;;22.54;36.74
77855;BME280;67046;50.088;14.336;2023-07-24T00:27:11;96939.95;;;22.54;36.78
77855;BME280;67046;50.088;14.336;2023-07-24T00:27:42;96935.31;;;22.53;36.71
77855;BME280;67046;50.088;14.336;2023-07-24T00:28:13;96935.65;;;22.52;36.79
77855;BME280;67046;50.088;14.336;2023-07-24T00:28:44;96936.31;;;22.51;36.82
77855;BME280;67046;50.088;14.336;2023-07-24T00:29:16;96939.86;;;22.51;36.84
77855;BME280;67046;50.088;14.336;2023-07-24T00:29:47;96936.90;;;22.50;36.80
77855;BME280;67046;50.088;14.336;2023-07-24T00:30:18;96938.52;;;22.49;36.87
77855;BME280;67046;50.088;14.336;2023-07-24T00:30:49;96937.73;;;22.47;36.80
77855;BME280;67046;50.088;14.336;2023-07-24T00:31:20;96937.66;;;22.46;36.90
77855;BME280;67046;50.088;14.336;2023-07-24T00:31:52;96938.65;;;22.46;37.01
77855;BME280;67046;50.088;14.336;2023-07-24T00:32:23;96934.98;;;22.44;36.99
77855;BME280;67046;50.088;14.336;2023-07-24T00:32:54;96939.63;;;22.43;36.93
77855;BME280;67046;50.088;14.336;2023-07-24T00:33:25;96941.84;;;22.42;37.00
77855;BME280;67046;50.088;14.336;2023-07-24T00:33:57;96936.63;;;22.41;37.10
77855;BME280;67046;50.088;14.336;2023-07-24T00:34:31;96933.60;;;22.40;37.02
77855;BME280;67046;50.088;14.336;2023-07-24T00:35:02;96934.17;;;22.39;37.13
77855;BME280;67046;50.088;14.336;2023-07-24T00:35:34;96929.20;;;22.38;37.21
77855;BME280;67046;50.088;14.336;2023-07-24T00:36:05;96932.32;;;22.37;37.09
77855;BME280;67046;50.088;14.336;2023-07-24T00:36:37;96930.89;;;22.36;37.07
77855;BME280;67046;50.088;14.336;2023-07-24T00:37:08;96929.06;;;22.34;37.10
77855;BME280;67046;50.088;14.336;2023-07-24T00:37:39;96929.07;;;22.34;37.21
77855;BME280;67046;50.088;14.336;2023-07-24T00:38:10;96926.74;;;22.34;37.17
77855;BME280;67046;50.088;14.336;2023-07-24T00:38:42;96924.33;;;22.33;37.24
77855;BME280;67046;50.088;14.336;2023-07-24T00:39:16;96929.55;;;22.33;37.29
77855;BME280;67046;50.088;14.336;2023-07-24T00:39:47;96926.74;;;22.32;37.25
77855;BME280;67046;50.088;14.336;2023-07-24T00:40:18;96928.25;;;22.31;37.26
77855;BME280;67046;50.088;14.336;2023-07-24T00:40:49;96927.80;;;22.29;37.25
77855;BME280;67046;50.088;14.336;2023-07-24T00:41:21;96931.45;;;22.28;37.25
77855;BME280;67046;50.088;14.336;2023-07-24T00:41:52;96931.81;;;22.27;37.35
77855;BME280;67046;50.088;14.336;2023-07-24T00:42:23;96931.13;;;22.26;37.44
77855;BME280;67046;50.088;14.336;2023-07-24T00:42:54;96932.16;;;22.25;37.40
77855;BME280;67046;50.088;14.336;2023-07-24T00:43:26;96926.19;;;22.24;37.34
77855;BME280;67046;50.088;14.336;2023-07-24T00:43:57;96927.40;;;22.23;37.40
77855;BME280;67046;50.088;14.336;2023-07-24T00:44:28;96925.13;;;22.22;37.45
77855;BME280;67046;50.088;14.336;2023-07-24T00:44:59;96923.16;;;22.21;37.41
77855;BME280;67046;50.088;14.336;2023-07-24T00:45:30;96926.84;;;22.21;37.38
77855;BME280;67046;50.088;14.336;2023-07-24T00:46:02;96929.80;;;22.19;37.38
77855;BME280;67046;50.088;14.336;2023-07-24T00:46:34;96927.17;;;22.19;37.49
77855;BME280;67046;50.088;14.336;2023-07-24T00:47:06;96924.48;;;22.19;37.38
77855;BME280;67046;50.088;14.336;2023-07-24T00:47:37;96925.75;;;22.18;37.42
77855;BME280;67046;50.088;14.336;2023-07-24T00:48:09;96924.64;;;22.18;37.48
77855;BME280;67046;50.088;14.336;2023-07-24T00:48:41;96923.02;;;22.17;37.56
77855;BME280;67046;50.088;14.336;2023-07-24T00:49:13;96929.65;;;22.16;37.41
77855;BME280;67046;50.088;14.336;2023-07-24T00:49:44;96921.39;;;22.15;37.43
77855;BME280;67046;50.088;14.336;2023-07-24T00:50:16;96927.77;;;22.15;37.51
77855;BME280;67046;50.088;14.336;2023-07-24T00:50:47;96925.34;;;22.14;37.55
77855;BME280;67046;50.088;14.336;2023-07-24T00:51:19;96926.58;;;22.12;37.58
77855;BME280;67046;50.088;14.336;2023-07-24T00:51:50;96925.05;;;22.10;37.61
77855;BME280;67046;50.088;14.336;2023-07-24T00:52:23;96930.48;;;22.10;37.64
77855;BME280;67046;50.088;14.336;2023-07-24T00:52:54;96931.70;;;22.09;37.60
77855;BME280;67046;50.088;14.336;2023-07-24T00:53:25;96931.14;;;22.08;37.63
77855;BME280;67046;50.088;14.336;2023-07-24T00:54:00;96927.54;;;22.07;37.65
77855;BME280;67046;50.088;14.336;2023-07-24T00:54:32;96932.45;;;22.06;37.52
77855;BME280;67046;50.088;14.336;2023-07-24T00:55:05;96930.86;;;22.05;37.64
77855;BME280;67046;50.088;14.336;2023-07-24T00:55:38;96932.67;;;22.05;37.74
77855;BME280;67046;50.088;14.336;2023-07-24T00:56:10;96930.96;;;22.04;37.71
77855;BME280;67046;50.088;14.336;2023-07-24T00:56:42;96931.67;;;22.03;37.72
77855;BME280;67046;50.088;14.336;2023-07-24T00:57:15;96932.12;;;22.02;37.80
77855;BME280;67046;50.088;14.336;2023-07-24T00:57:46;96930.77;;;22.01;37.67
77855;BME280;67046;50.088;14.336;2023-07-24T00:58:19;96927.08;;;22.01;37.62
77855;BME280;67046;50.088;14.336;2023-07-24T00:58:51;96932.67;;;21.99;37.84
77855;BME280;67046;50.088;14.336;2023-07-24T00:59:22;96935.27;;;21.98;37.70
77855;BME280;67046;50.088;14.336;2023-07-24T00:59:54;96930.54;;;21.95;37.79
77855;BME280;67046;50.088;14.336;2023-07-24T01:00:25;96940.08;;;21.93;37.92
77855;BME280;67046;50.088;14.336;2023-07-24T01:00:57;96940.59;;;21.92;37.90
77855;BME280;67046;50.088;14.336;2023-07-24T01:01:28;96941.48;;;21.91;37.80
77855;BME280;67046;50.088;14.336;2023-07-24T01:02:00;96935.98;;;21.90;37.91
77855;BME280;67046;50.088;14.336;2023-07-24T01:02:31;96943.13;;;21.91;37.97
77855;BME280;67046;50.088;14.336;2023-07-24T01:03:03;96943.25;;;21.90;38.02
77855;BME280;67046;50.088;14.336;2023-07-24T01:03:35;96942.77;;;21.89;37.94
77855;BME280;67046;50.088;14.336;2023-07-24T01:04:07;96943.36;;;21.88;38.04
77855;BME280;67046;50.088;14.336;2023-07-24T01:04:38;96940.77;;;21.87;37.94
77855;BME280;67046;50.088;14.336;2023-07-24T01:05:11;96945.92;;;21.87;37.94
77855;BME280;67046;50.088;14.336;2023-07-24T01:05:44;96941.49;;;21.86;37.90
77855;BME280;67046;50.088;14.336;2023-07-24T01:06:15;96943.29;;;21.85;37.94
77855;BME280;67046;50.088;14.336;2023-07-24T01:06:46;96941.52;;;21.85;37.96
77855;BME280;67046;50.088;14.336;2023-07-24T01:07:18;96944.96;;;21.85;37.84
77855;BME280;67046;50.088;14.336;2023-07-24T01:07:49;96942.45;;;21.84;37.87
77855;BME280;67046;50.088;14.336;2023-07-24T01:08:20;96943.60;;;21.84;37.92
77855;BME280;67046;50.088;14.336;2023-07-24T01:08:51;96943.92;;;21.84;37.98
77855;BME280;67046;50.088;14.336;2023-07-24T01:09:22;96941.14;;;21.84;37.94
77855;BME280;67046;50.088;14.336;2023-07-24T01:09:54;96947.14;;;21.84;37.93
77855;BME280;67046;50.088;14.336;2023-07-24T01:10:25;96951.20;;;21.84;37.97
77855;BME280;67046;50.088;14.336;2023-07-24T01:11:01;96943.02;;;21.82;37.91
77855;BME280;67046;50.088;14.336;2023-07-24T01:11:41;96944.19;;;21.83;37.88
77855;BME280;67046;50.088;14.336;2023-07-24T01:13:10;96945.30;;;21.82;37.98
77855;BME280;67046;50.088;14.336;2023-07-24T01:13:58;96945.13;;;21.76;37.99
77855;BME280;67046;50.088;14.336;2023-07-24T01:14:37;96945.23;;;21.75;38.04
77855;BME280;67046;50.088;14.336;2023-07-24T01:15:56;96944.48;;;21.73;38.08
77855;BME280;67046;50.088;14.336;2023-07-24T01:16:37;96945.89;;;21.70;38.18
77855;BME280;67046;50.088;14.336;2023-07-24T01:17:15;96944.06;;;21.69;38.15
77855;BME280;67046;50.088;14.336;2023-07-24T01:17:59;96945.64;;;21.68;38.33
77855;BME280;67046;50.088;14.336;2023-07-24T01:18:32;96946.30;;;21.67;38.33
77855;BME280;67046;50.088;14.336;2023-07-24T01:19:23;96944.36;;;21.66;38.25
77855;BME280;67046;50.088;14.336;2023-07-24T01:20:22;96946.88;;;21.64;38.30
77855;BME280;67046;50.088;14.336;2023-07-24T01:21:08;96950.45;;;21.63;38.43
77855;BME280;67046;50.088;14.336;2023-07-24T01:22:55;96944.71;;;21.62;38.30
77855;BME280;67046;50.088;14.336;2023-07-24T01:23:22;96945.05;;;21.57;38.31
77855;BME280;67046;50.088;14.336;2023-07-24T01:25:35;96945.95;;;21.53;38.31
77855;BME280;67046;50.088;14.336;2023-07-24T01:26:13;96945.41;;;21.53;38.46
77855;BME280;67046;50.088;14.336;2023-07-24T01:26:51;96944.77;;;21.53;38.41
77855;BME280;67046;50.088;14.336;2023-07-24T01:27:24;96945.88;;;21.53;38.59
77855;BME280;67046;50.088;14.336;2023-07-24T01:28:00;96941.81;;;21.51;38.56
77855;BME280;67046;50.088;14.336;2023-07-24T01:28:32;96942.10;;;21.53;38.50
77855;BME280;67046;50.088;14.336;2023-07-24T01:29:14;96942.03;;;21.53;38.32
77855;BME280;67046;50.088;14.336;2023-07-24T01:29:49;96937.73;;;21.53;38.51
77855;BME280;67046;50.088;14.336;2023-07-24T01:30:21;96940.19;;;21.53;38.44
77855;BME280;67046;50.088;14.336;2023-07-24T01:30:53;96941.73;;;21.53;38.55
77855;BME280;67046;50.088;14.336;2023-07-24T01:31:27;96934.33;;;21.53;38.48
77855;BME280;67046;50.088;14.336;2023-07-24T01:32:03;96935.81;;;21.53;38.54
77855;BME280;67046;50.088;14.336;2023-07-24T01:32:44;96938.54;;;21.52;38.63
77855;BME280;67046;50.088;14.336;2023-07-24T01:33:15;96939.24;;;21.52;38.49
77855;BME280;67046;50.088;14.336;2023-07-24T01:33:46;96939.24;;;21.52;38.64
77855;BME280;67046;50.088;14.336;2023-07-24T01:34:17;96935.80;;;21.53;38.67
77855;BME280;67046;50.088;14.336;2023-07-24T01:34:49;96936.80;;;21.53;38.60
77855;BME280;67046;50.088;14.336;2023-07-24T01:35:20;96935.52;;;21.53;38.61
77855;BME280;67046;50.088;14.336;2023-07-24T01:35:57;96933.73;;;21.53;38.67
77855;BME280;67046;50.088;14.336;2023-07-24T01:36:29;96937.35;;;21.53;38.62
77855;BME280;67046;50.088;14.336;2023-07-24T01:37:00;96936.42;;;21.53;38.65
77855;BME280;67046;50.088;14.336;2023-07-24T01:37:34;96935.50;;;21.53;38.73
77855;BME280;67046;50.088;14.336;2023-07-24T01:38:05;96938.80;;;21.53;38.68
77855;BME280;67046;50.088;14.336;2023-07-24T01:38:37;96936.41;;;21.53;38.72
77855;BME280;67046;50.088;14.336;2023-07-24T01:39:09;96935.64;;;21.53;38.65
77855;BME280;67046;50.088;14.336;2023-07-24T01:39:41;96933.71;;;21.52;38.71
77855;BME280;67046;50.088;14.336;2023-07-24T01:40:15;96931.23;;;21.52;38.77
77855;BME280;67046;50.088;14.336;2023-07-24T01:40:47;96927.93;;;21.52;38.66
77855;BME280;67046;50.088;14.336;2023-07-24T01:41:19;96924.61;;;21.51;38.76
77855;BME280;67046;50.088;14.336;2023-07-24T01:41:51;96922.20;;;21.51;38.74
77855;BME280;67046;50.088;14.336;2023-07-24T01:42:23;96918.84;;;21.49;38.69
77855;BME280;67046;50.088;14.336;2023-07-24T01:42:55;96917.56;;;21.46;38.76
77855;BME280;67046;50.088;14.336;2023-07-24T01:43:28;96914.62;;;21.48;38.79
77855;BME280;67046;50.088;14.336;2023-07-24T01:44:00;96916.32;;;21.48;38.69
77855;BME280;67046;50.088;14.336;2023-07-24T01:44:31;96914.92;;;21.48;38.76
77855;BME280;67046;50.088;14.336;2023-07-24T01:45:03;96912.15;;;21.48;38.77
77855;BME280;67046;50.088;14.336;2023-07-24T01:45:35;96912.88;;;21.48;38.68
77855;BME280;67046;50.088;14.336;2023-07-24T01:46:09;96910.13;;;21.49;38.68
77855;BME280;67046;50.088;14.336;2023-07-24T01:46:40;96911.52;;;21.49;38.53
77855;BME280;67046;50.088;14.336;2023-07-24T01:47:12;96911.30;;;21.49;38.66
77855;BME280;67046;50.088;14.336;2023-07-24T01:47:43;96905.38;;;21.49;38.67
77855;BME280;67046;50.088;14.336;2023-07-24T01:48:14;96908.79;;;21.50;38.78
77855;BME280;67046;50.088;14.336;2023-07-24T01:48:45;96902.94;;;21.49;38.65
77855;BME280;67046;50.088;14.336;2023-07-24T01:49:17;96903.02;;;21.50;38.79
77855;BME280;67046;50.088;14.336;2023-07-24T01:49:48;96901.13;;;21.50;38.70
77855;BME280;67046;50.088;14.336;2023-07-24T01:50:20;96902.23;;;21.51;38.73
77855;BME280;67046;50.088;14.336;2023-07-24T01:50:51;96906.09;;;21.51;38.80
77855;BME280;67046;50.088;14.336;2023-07-24T01:51:22;96907.45;;;21.51;38.77
77855;BME280;67046;50.088;14.336;2023-07-24T01:51:53;96909.77;;;21.51;38.72
77855;BME280;67046;50.088;14.336;2023-07-24T01:52:25;96911.25;;;21.52;38.64
77855;BME280;67046;50.088;14.336;2023-07-24T01:52:57;96914.16;;;21.52;38.77
77855;BME280;67046;50.088;14.336;2023-07-24T01:53:28;96913.69;;;21.51;38.82
77855;BME280;67046;50.088;14.336;2023-07-24T01:53:59;96911.94;;;21.50;38.86
77855;BME280;67046;50.088;14.336;2023-07-24T01:54:30;96914.52;;;21.51;38.85
77855;BME280;67046;50.088;14.336;2023-07-24T01:55:02;96915.04;;;21.51;38.84
77855;BME280;67046;50.088;14.336;2023-07-24T01:55:33;96912.80;;;21.51;38.83
77855;BME280;67046;50.088;14.336;2023-07-24T01:56:04;96912.94;;;21.50;38.84
77855;BME280;67046;50.088;14.336;2023-07-24T01:56:36;96908.98;;;21.49;38.86
77855;BME280;67046;50.088;14.336;2023-07-24T01:57:08;96908.14;;;21.49;38.87
77855;BME280;67046;50.088;14.336;2023-07-24T01:57:39;96898.88;;;21.48;38.95
77855;BME280;67046;50.088;14.336;2023-07-24T01:58:10;96898.94;;;21.47;38.92
77855;BME280;67046;50.088;14.336;2023-07-24T01:58:42;96893.21;;;21.47;39.02
77855;BME280;67046;50.088;14.336;2023-07-24T01:59:13;96888.23;;;21.46;39.01
77855;BME280;67046;50.088;14.336;2023-07-24T01:59:44;96891.29;;;21.46;39.08
77855;BME280;67046;50.088;14.336;2023-07-24T02:00:16;96886.61;;;21.46;39.09
77855;BME280;67046;50.088;14.336;2023-07-24T02:00:47;96883.77;;;21.46;39.04
77855;BME280;67046;50.088;14.336;2023-07-24T02:01:18;96879.73;;;21.46;39.14
77855;BME280;67046;50.088;14.336;2023-07-24T02:01:49;96879.10;;;21.45;39.20
77855;BME280;67046;50.088;14.336;2023-07-24T02:02:21;96877.79;;;21.45;39.08
77855;BME280;67046;50.088;14.336;2023-07-24T02:02:52;96879.10;;;21.45;39.13
77855;BME280;67046;50.088;14.336;2023-07-24T02:03:23;96877.34;;;21.45;39.25
77855;BME280;67046;50.088;14.336;2023-07-24T02:03:54;96879.64;;;21.45;39.28
77855;BME280;67046;50.088;14.336;2023-07-24T02:04:26;96874.40;;;21.45;39.39
77855;BME280;67046;50.088;14.336;2023-07-24T02:04:57;96879.27;;;21.45;39.29
77855;BME280;67046;50.088;14.336;2023-07-24T02:05:28;96881.34;;;21.46;39.38
77855;BME280;67046;50.088;14.336;2023-07-24T02:06:00;96878.98;;;21.46;39.41
77855;BME280;67046;50.088;14.336;2023-07-24T02:06:31;96879.52;;;21.46;39.40
77855;BME280;67046;50.088;14.336;2023-07-24T02:07:02;96877.75;;;21.46;39.43
77855;BME280;67046;50.088;14.336;2023-07-24T02:07:33;96878.77;;;21.46;39.62
77855;BME280;67046;50.088;14.336;2023-07-24T02:08:05;96875.43;;;21.46;39.58
77855;BME280;67046;50.088;14.336;2023-07-24T02:08:36;96878.60;;;21.46;39.70
77855;BME280;67046;50.088;14.336;2023-07-24T02:09:07;96876.92;;;21.46;39.81
77855;BME280;67046;50.088;14.336;2023-07-24T02:09:38;96878.45;;;21.46;39.91
77855;BME280;67046;50.088;14.336;2023-07-24T02:10:09;96875.09;;;21.47;39.81
77855;BME280;67046;50.088;14.336;2023-07-24T02:10:41;96874.73;;;21.47;39.82
77855;BME280;67046;50.088;14.336;2023-07-24T02:11:12;96871.65;;;21.47;39.87
77855;BME280;67046;50.088;14.336;2023-07-24T02:11:43;96873.96;;;21.47;39.97
77855;BME280;67046;50.088;14.336;2023-07-24T02:12:15;96872.95;;;21.46;40.06
77855;BME280;67046;50.088;14.336;2023-07-24T02:12:46;96872.03;;;21.47;40.03
77855;BME280;67046;50.088;14.336;2023-07-24T02:13:17;96875.09;;;21.46;40.14
77855;BME280;67046;50.088;14.336;2023-07-24T02:13:48;96877.53;;;21.46;40.26
77855;BME280;67046;50.088;14.336;2023-07-24T02:14:20;96876.48;;;21.47;40.23
77855;BME280;67046;50.088;14.336;2023-07-24T02:14:52;96876.02;;;21.46;40.28
77855;BME280;67046;50.088;14.336;2023-07-24T02:15:24;96879.34;;;21.47;40.39
77855;BME280;67046;50.088;14.336;2023-07-24T02:15:55;96875.04;;;21.47;40.33
77855;BME280;67046;50.088;14.336;2023-07-24T02:16:26;96878.27;;;21.47;40.42
77855;BME280;67046;50.088;14.336;2023-07-24T02:16:58;96875.45;;;21.47;40.41
77855;BME280;67046;50.088;14.336;2023-07-24T02:17:29;96876.44;;;21.48;40.48
77855;BME280;67046;50.088;14.336;2023-07-24T02:18:01;96882.23;;;21.48;40.53
77855;BME280;67046;50.088;14.336;2023-07-24T02:18:32;96883.46;;;21.48;40.64
77855;BME280;67046;50.088;14.336;2023-07-24T02:19:03;96882.22;;;21.48;40.53
77855;BME280;67046;50.088;14.336;2023-07-24T02:19:34;96883.14;;;21.48;40.60
77855;BME280;67046;50.088;14.336;2023-07-24T02:20:06;96883.84;;;21.48;40.59
77855;BME280;67046;50.088;14.336;2023-07-24T02:20:38;96889.21;;;21.48;40.62
77855;BME280;67046;50.088;14.336;2023-07-24T02:21:09;96889.09;;;21.49;40.61
77855;BME280;67046;50.088;14.336;2023-07-24T02:21:40;96889.91;;;21.48;40.72
77855;BME280;67046;50.088;14.336;2023-07-24T02:22:11;96891.46;;;21.49;40.72
77855;BME280;67046;50.088;14.336;2023-07-24T02:22:43;96895.92;;;21.49;40.97
77855;BME280;67046;50.088;14.336;2023-07-24T02:23:14;96897.89;;;21.48;40.99
77855;BME280;67046;50.088;14.336;2023-07-24T02:23:45;96899.15;;;21.49;40.96
77855;BME280;67046;50.088;14.336;2023-07-24T02:24:17;96902.25;;;21.48;41.09
77855;BME280;67046;50.088;14.336;2023-07-24T02:24:48;96905.17;;;21.48;41.09
77855;BME280;67046;50.088;14.336;2023-07-24T02:25:19;96908.92;;;21.48;40.97
77855;BME280;67046;50.088;14.336;2023-07-24T02:25:51;96912.77;;;21.47;41.13
77855;BME280;67046;50.088;14.336;2023-07-24T02:26:25;96914.06;;;21.47;41.10
77855;BME280;67046;50.088;14.336;2023-07-24T02:26:57;96919.02;;;21.46;41.08
77855;BME280;67046;50.088;14.336;2023-07-24T02:27:31;96919.21;;;21.46;41.10
77855;BME280;67046;50.088;14.336;2023-07-24T02:28:05;96921.84;;;21.46;41.24
77855;BME280;67046;50.088;14.336;2023-07-24T02:28:36;96922.88;;;21.45;41.15
77855;BME280;67046;50.088;14.336;2023-07-24T02:29:07;96919.64;;;21.45;41.18
77855;BME280;67046;50.088;14.336;2023-07-24T02:29:38;96923.02;;;21.44;41.22
77855;BME280;67046;50.088;14.336;2023-07-24T02:30:10;96925.62;;;21.44;41.31
77855;BME280;67046;50.088;14.336;2023-07-24T02:30:41;96922.52;;;21.44;41.30
77855;BME280;67046;50.088;14.336;2023-07-24T02:31:13;96927.00;;;21.43;41.40
77855;BME280;67046;50.088;14.336;2023-07-24T02:31:44;96927.52;;;21.42;41.34
77855;BME280;67046;50.088;14.336;2023-07-24T02:32:15;96928.42;;;21.42;41.38
77855;BME280;67046;50.088;14.336;2023-07-24T02:32:47;96929.05;;;21.42;41.42
77855;BME280;67046;50.088;14.336;2023-07-24T02:33:18;96932.36;;;21.42;41.45
77855;BME280;67046;50.088;14.336;2023-07-24T02:33:50;96930.68;;;21.41;41.41
77855;BME280;67046;50.088;14.336;2023-07-24T02:34:21;96930.88;;;21.42;41.55
77855;BME280;67046;50.088;14.336;2023-07-24T02:34:57;96935.49;;;21.42;41.57
77855;BME280;67046;50.088;14.336;2023-07-24T02:35:28;96933.63;;;21.41;41.65
77855;BME280;67046;50.088;14.336;2023-07-24T02:36:00;96934.16;;;21.41;41.81
77855;BME280;67046;50.088;14.336;2023-07-24T02:36:31;96932.40;;;21.41;41.70
77855;BME280;67046;50.088;14.336;2023-07-24T02:37:03;96929.89;;;21.40;41.97
77855;BME280;67046;50.088;14.336;2023-07-24T02:37:34;96934.48;;;21.39;42.02
77855;BME280;67046;50.088;14.336;2023-07-24T02:38:05;96927.98;;;21.38;42.23
77855;BME280;67046;50.088;14.336;2023-07-24T02:38:37;96930.00;;;21.39;42.11
77855;BME280;67046;50.088;14.336;2023-07-24T02:39:08;96929.73;;;21.40;42.26
77855;BME280;67046;50.088;14.336;2023-07-24T02:39:39;96930.08;;;21.39;42.42
77855;BME280;67046;50.088;14.336;2023-07-24T02:40:11;96926.31;;;21.39;42.34
77855;BME280;67046;50.088;14.336;2023-07-24T02:40:44;96925.00;;;21.38;42.56
77855;BME280;67046;50.088;14.336;2023-07-24T02:41:15;96924.91;;;21.38;42.44
77855;BME280;67046;50.088;14.336;2023-07-24T02:41:49;96924.55;;;21.39;42.44
77855;BME280;67046;50.088;14.336;2023-07-24T02:42:20;96917.17;;;21.37;42.49
77855;BME280;67046;50.088;14.336;2023-07-24T02:42:52;96918.86;;;21.38;42.44
77855;BME280;67046;50.088;14.336;2023-07-24T02:43:23;96919.95;;;21.39;42.54
77855;BME280;67046;50.088;14.336;2023-07-24T02:43:54;96918.91;;;21.40;42.47
77855;BME280;67046;50.088;14.336;2023-07-24T02:44:25;96919.71;;;21.41;42.41
77855;BME280;67046;50.088;14.336;2023-07-24T02:44:57;96918.23;;;21.40;42.35
77855;BME280;67046;50.088;14.336;2023-07-24T02:45:28;96916.10;;;21.41;42.45
77855;BME280;67046;50.088;14.336;2023-07-24T02:46:02;96920.96;;;21.41;42.27
77855;BME280;67046;50.088;14.336;2023-07-24T02:46:33;96921.31;;;21.43;42.44
77855;BME280;67046;50.088;14.336;2023-07-24T02:47:05;96918.56;;;21.43;42.64
77855;BME280;67046;50.088;14.336;2023-07-24T02:47:36;96918.81;;;21.43;42.52
77855;BME280;67046;50.088;14.336;2023-07-24T02:48:08;96919.52;;;21.43;42.53
77855;BME280;67046;50.088;14.336;2023-07-24T02:48:40;96920.40;;;21.44;42.60
77855;BME280;67046;50.088;14.336;2023-07-24T02:49:11;96923.39;;;21.44;42.58
77855;BME280;67046;50.088;14.336;2023-07-24T02:49:42;96921.58;;;21.45;42.88
77855;BME280;67046;50.088;14.336;2023-07-24T02:50:13;96919.44;;;21.45;42.73
77855;BME280;67046;50.088;14.336;2023-07-24T02:50:47;96920.29;;;21.46;42.83
77855;BME280;67046;50.088;14.336;2023-07-24T02:51:19;96922.29;;;21.45;42.70
77855;BME280;67046;50.088;14.336;2023-07-24T02:51:50;96922.79;;;21.45;42.76
77855;BME280;67046;50.088;14.336;2023-07-24T02:52:22;96926.09;;;21.44;42.68
77855;BME280;67046;50.088;14.336;2023-07-24T02:52:53;96925.08;;;21.44;42.75